Ambulong, Philippines

8:33 PM PHT on December 07, 2016 (GMT +0800)
WFP NCAS UP Los Banos Laguna (UPLB) | | Change Station

Elev 860 ft 14.17 °N, 121.24 °E | Updated 5 minutes ago

Rain
Rain
76.6 °F
Feels Like 77 °F
N
0.0
Wind Variable Wind from SSE
Gusts 3.0 mph

Today
High -- | Low -- °F
--% Chance of Precip.
Yesterday
High -- | Low -- °F
Precip. -- in
Pressure 29.80 in
Visibility 6.2 miles
Clouds Scattered Clouds 2300 ft
Mostly Cloudy 10000 ft
Heat Index 77 °F
Dew Point 74 °F
Humidity 92%
Rainfall in
Snow Depth Not available.
6:07 AM 5:27 PM
First Quarter, 52% visible
METAR RPLL 071200Z 00000KT 9999 SCT023 BKN100 27/27 Q1009 NOSIG RMK A2980
Pressure 29.80 in
Visibility 6.2 miles
Clouds Scattered Clouds 2300 ft
Mostly Cloudy 10000 ft
Heat Index 77 °F
Dew Point 74 °F
Humidity 92%
Rainfall in
Snow Depth Not available.
6:07 AM 5:27 PM
First Quarter, 52% visible
METAR RPLL 071200Z 00000KT 9999 SCT023 BKN100 27/27 Q1009 NOSIG RMK A2980

10-Day Weather Forecast

No radar image for this location.
×

Almanac

Astronomy

Dec. 07, 2016 Rise Set
Actual Time
Civil Twilight
Nautical Twilight
Astronomical Twilight
Moon
Length of Visible Light
Length of Day
Tomorrow will be .
, % of the Moon is Illuminated

Today's Extremes

Country Highs Country Lows

Community

WunderPhotos

Upload Photos

1,956,111 photos uploaded!

WunderBlog® & News

Nearby

Air Quality

  Air Quality AQ Index Pollutant
Not available.

Snow Depth

Station Depth Elevation

Earthquake Activity

City Distance Mag. Time & Date
Minimum magnitude displayed is 2.5.

Coastal Water Temperatures

Place Temperature

Stations

Nearby Weather Stations

Station Location Temp. Windchill Dew Point Humidity Wind Precip. Elev Updated Type